Scroll down
FLIGHT INFORMATION
PMDG Flight Operations


At Arrival Gate

TJSJ
 MRLB
DATE: 2020-09-30
GATE:  -
GATE DEPARTURE: 19:43
TAKEOFF: 19:51
DATE: 2020-09-30
GATE:  -
LANDING: 23:03
GATE ARRIVAL: 23:13
FLIGHT DATA
Crew: 
Speed: 
472 kts
Altitude: 
38,010 ft
Stage Length: 
1,228.4 nm
Block Time: 
3.5 hrs
Flight Time: 
3.2 hrs
Fuel Used: 
17,685 lb
Cleared Route: TJSJ SCAPA PENKO ERIKO OPLOS RADON TABOG MRLB
TRACK DATA
50,000 ft 1,000 kts
AIRCRAFT INFO AND CUMULATIVE STATS
Aircraft Type: 
B737BDSF
Registration: 
SELCAL: 
MSN/LN: 
0 / 1
Total Flights: 
3
Total Block Time: 
9.9 hrs
Total Flight Time: 
9.2 hrs
Total Fuel Time: 
52,442 lb
DATALINK LOG | Newest first | Current as of: 2021-05-07 14:01:34
LABEL SEQUENCE CONTENT Dn/Up
QD231823:13 8.6▼ Dn
QC125123:03▼ Dn
UM740049PROCEED DIRECT TO INDIO▲ Up
DM220039REQUEST DIRECT TO INDIO▼ Dn
UM204737CLEARED TO FL 90▲ Up
DM64727REQUEST FL 090 DUE TO A/C PERF▼ Dn
UM235518DESCEND TO 240▲ Up
UM154028AT 55 PAST THE HOUR EXPECT DESCENT TO 240▲ Up
DM67I4018WHEN CAN WE EXPECT DESCENT TO FL 240▼ Dn
GA3725ADVANCED GATE ASSIGNMENTS NOT YET AVAILABLE AT THIS AIRPORT▲ Up
GR3715MRLB 23:02 MAAS YP/UM WCHR/S/C HI-VAL NO DIPL/VIP NO▼ Dn
5U2553MRLB 010222Z 16003KT 9999 RA FEW035 SCT100 24/24 A2977▲ Up
5S3412MRLB▼ Dn
2U4953TJSJ 302056Z 07017KT 10SM SCT026 SCT130 30/26 A2993 RMK AO2 SLP132 T03000261 56009 $▲ Up
2S1048TJSJ▼ Dn
UM205629CLEARED TO FL 380▲ Up
DM65619REQUEST FL 380 DUE TO A/C PERF▼ Dn
UM0 UM194922UNABLE. MAINTAIN ASSIGNED ALTITUDE▲ Up
DM544912WHEN CAN WE EXPECT CRUISE CLIMB TO FL 380▼ Dn
QB450819:51▼ Dn
QA370019:43 26.3▼ Dn
A35731CLEARED TO MRLB VIA GANBO1 SCAPA PENKO ERIKO OPLOS RADON TABOG DANTA. SQUAWK .▲ Up
B35721TJSJ MRLB U ▼ Dn
Q05418[LINK ACK]▲ Up
Q05418[LINK TEST]▼ Dn


AIRCRAFT HISTORY
FLIGHT DATE FLIGHT NO. ORIGIN DESTINATION CLEARED ROUTE BLOCK TIME FLIGHT TIME FUEL USED PILOT
2020-09-30TJSJ MRLB TJSJ SCAPA PENKO ERIKO OPLOS RADON TABOG MRLB3.5 hrs3.2 hrs17,685 lbZsolt Szivak
2020-08-26PFO1973KMIA TJSJ KMIA SKIPS RAJAY COZIE DONEZ PAARR RNDLY GTK COCBU SEBUG GRADI HARDE TJSJ2.5 hrs2.3 hrs12,842 lbMike Dryden
2020-08-21PFO2201SEQM KMIA SEQM NEGAL ENSOL TCO TOKUT MILAT TBG ARNAL EMASA GCM ATUVI UCL XOPLI IKBIX PEAKY DVALL KMIA3.9 hrs3.7 hrs21,914 lbRoberto Stopnicki